METAR Data
IDs: Format: Raw Decoded Include TAF

Data at: 0429 UTC 26 Sep 2018

KOKK 260409Z AUTO 24009KT 10SM BKN012 BKN110 22/21 A2992 RMK AO2 LTG DSNT SE
KOKK 260356Z AUTO 21008KT 10SM FEW012 SCT060 BKN110 22/21 A2992 RMK AO2 LTG DSNT SE RAB27E39 SLP128 P0000 T02170206
KOKK 260349Z AUTO 25007KT 10SM SCT010 BKN060 22/21 A2991 RMK AO2 LTG DSNT SE AND S RAB27E39 P0000
KOKK 260256Z AUTO 18008KT 10SM BKN014 22/21 A2991 RMK AO2 SLP126 T02170211 53004
KOKK 260156Z AUTO 20008KT 10SM FEW014 22/21 A2991 RMK AO2 SLP125 T02220211
KOKK 260056Z AUTO 19012KT 10SM FEW100 23/21 A2989 RMK AO2 LTG DSNT SE AND S SLP117 T02280211
KOKK 252356Z AUTO 19006KT 4SM BR OVC100 23/22 A2990 RMK AO2 SLP122 60001 T02280217 10244 20211 53008
KOKK 252353Z AUTO 20006KT 1 1/2SM BR FEW080 OVC100 23/22 A2990 RMK AO2
KOKK 252343Z AUTO 20005KT 3/4SM BR SCT080 BKN100 23/22 A2991 RMK AO2
KOKK 252340Z AUTO 19005KT 1 3/4SM BR BKN100 23/22 A2990 RMK AO2
KOKK 252256Z AUTO 21009KT 10SM BKN090 23/22 A2989 RMK AO2 SLP118 T02330217
KOKK 252217Z AUTO 22013KT 10SM SCT015 24/22 A2989 RMK AO2
KOKK 252156Z AUTO 22014KT 10SM FEW013 BKN019 24/22 A2988 RMK AO2 RAE19 SLP114 P0001 T02390222
KOKK 252151Z AUTO 21012KT 10SM BKN016 24/22 A2988 RMK AO2 RAE19 P0001
KOKK 252126Z AUTO 22009KT 10SM FEW006 BKN012 OVC018 23/22 A2987 RMK AO2 RAE19 P0001
KOKK 252112Z AUTO 21011KT 7SM -RA OVC008 22/22 A2987 RMK AO2 CIG 005V012 P0001
KOKK 252103Z AUTO 21010G15KT 2 1/2SM -RA BR BKN006 OVC011 22/22 A2987 RMK AO2 CIG 005V009 P0001
KOKK 252052Z AUTO 21007KT 3SM -RA BR SCT006 BKN010 OVC017 22/22 A2987 RMK AO2 RAB31 CIG 008V012 P0000
KOKK 252041Z AUTO 19008KT 5SM -RA BR BKN007 BKN014 OVC024 23/22 A2987 RMK AO2 RAB31 CIG 006V011 P0000
KOKK 251956Z AUTO 17011KT 10SM BKN010 BKN016 OVC049 24/22 A2989 RMK AO2 RAB27E45 CIG 007V012 SLP119 P0000 T02390217
KOKK 251951Z AUTO 17010KT 10SM BKN010 BKN016 OVC030 24/22 A2990 RMK AO2 RAB27E45 CIG 007V012 P0000
KOKK 251943Z AUTO 17009KT 10SM -RA SCT010 BKN016 OVC026 23/22 A2990 RMK AO2 RAB27 P0000
KOKK 251856Z AUTO 16006KT 10SM BKN014 BKN020 23/21 A2993 RMK AO2 SLP131 T02280206
KOKK 251826Z AUTO 15007KT 10SM BKN022 BKN033 OVC110 22/20 A2995 RMK AO2
KOKK 251756Z AUTO 18007KT 10SM SCT028 BKN120 21/19 A2997 RMK AO2 RAE51 SLP146 P0003 60112 T02110194 10217 20200 58001
KOKK 251656Z AUTO 26008KT 10SM RA FEW050 BKN070 OVC095 20/19 A2998 RMK AO2 LTG DSNT N AND NE TSE10B11E31 SLP147 P0021 T02000189
KOKK 251637Z AUTO 26014G17KT 9SM RA SCT008 BKN070 OVC090 21/20 A2998 RMK AO2 LTG DSNT NW-E TSE10B11E31 P0016
KOKK 251631Z AUTO 22009KT 7SM RA BKN008 BKN018 OVC070 21/21 A3000 RMK AO2 LTG DSNT NW-E TSE10B11E31 CIG 005V014 P0015
KOKK 251617Z AUTO 22007KT 6SM -TSRA BR SCT008 BKN012 OVC028 21/21 A3001 RMK AO2 LTG DSNT ALQDS TSE10B11 P0012
KOKK 251610Z AUTO 23006KT 2 1/2SM RA BR FEW003 SCT010 OVC020 21/21 A3000 RMK AO2 TSE10 P0010
KOKK 251608Z AUTO 23009G20KT 2SM +TSRA BR FEW003 BKN016 OVC020 21/21 A3001 RMK AO2 LTG DSNT ALQDS P0010
KOKK 251556Z AUTO 25016G23KT 1 1/4SM +TSRA BR FEW003 BKN009 OVC055 21/21 A3000 RMK AO2 LTG DSNT ALQDS TSB31RAB32 CIG 005V014 SLP156 P0075 T02110206
KOKK 251554Z AUTO 24014KT 1 1/4SM +TSRA BR SCT005 BKN009 OVC055 21/21 A3001 RMK AO2 LTG DSNT ALQDS TSB31RAB32 CIG 007V014 P0071
KOKK 251546Z AUTO 22011G18KT 1SM +TSRA BR BKN005 BKN011 OVC055 22/21 A2999 RMK AO2 LTG DSNT SE-W TSB31RAB32 CIG 003V007 P0048
KOKK 251542Z AUTO 20012G17KT 1 3/4SM +TSRA BR BKN007 BKN011 OVC055 22/21 A3000 RMK AO2 LTG DSNT ALQDS TSB31RAB32 CIG 003V008 P0023
KOKK 251537Z AUTO 22010KT 5SM VCTS +RA BR BKN007 OVC055 22/21 A3000 RMK AO2 LTG DSNT ALQDS TSB31RAB32 CIG 004V008 P0004
KOKK 251456Z AUTO 17006KT 9SM OVC007 22/21 A2997 RMK AO2 LTG DSNT S SLP147 60013 T02170211 50000
KOKK 251436Z AUTO 20009KT 10SM BKN007 OVC029 22/21 A2999 RMK AO2 LTG DSNT S AND SW
KOKK 251422Z AUTO 20008KT 10SM FEW007 BKN029 22/21 A2999 RMK AO2
KOKK 251356Z AUTO 19008KT 10SM OVC027 22/21 A2999 RMK AO2 SLP153 T02170206
KOKK 251321Z AUTO 18006KT 10SM SCT006 BKN021 OVC037 22/21 A2999 RMK AO2
KOKK 251312Z AUTO 18006KT 10SM SCT022 BKN026 OVC037 22/21 A2999 RMK AO2
KOKK 251256Z AUTO 20007KT 10SM FEW023 SCT031 BKN039 21/21 A2998 RMK AO2 RAE56 SLP151 P0013 T02110206
KOKK 251243Z AUTO 19007KT 10SM FEW006 BKN031 OVC045 21/21 A2998 RMK AO2 LTG DSNT E RAE40 P0013
KOKK 251226Z AUTO 21009KT 5SM RA BR SCT006 BKN025 OVC031 21/21 A2999 RMK AO2 LTG DSNT E AND SE P0012
KOKK 251219Z AUTO 22008KT 5SM RA BR BKN006 BKN033 OVC110 21/21 A2998 RMK AO2 LTG DSNT SE CIG 004V014 P0007
KOKK 251208Z AUTO 20010KT 8SM RA SCT008 BKN025 OVC110 21/21 A2998 RMK AO2 LTG DSNT SE CIG 014V034 P0001
KOKK 251156Z AUTO 18009KT 4SM RA BR FEW013 BKN029 OVC070 21/21 A2997 RMK AO2 TSB34E49RAB01E12B31 SLP148 P0020 60041 70043 T02110206 10211 20211 51004
KOKK 251134Z AUTO 19009KT 8SM VCTS RA FEW009 BKN025 OVC032 21/21 A2998 RMK AO2 TSB34RAB01E12B31 P0001
KOKK 251052Z AUTO 18007KT 10SM FEW006 BKN024 OVC032 21/21 A2997 RMK AO2 LTG DSNT E AND SE TSB36E39B41E51RAE05B37E47 SLP148 P0000 T02110206
KOKK 251051Z AUTO 18006KT 10SM FEW006 BKN024 OVC032 21/21 A2997 RMK AO2 LTG DSNT E AND SE TSB36E39B41E51RAE05B37E47 P0000
KOKK 251041Z AUTO 20007KT 10SM VCTS -RA SCT006 BKN011 OVC034 21/21 A2997 RMK AO2 LTG DSNT SE TSB36E39B41RAE05B37 P0000
KOKK 251037Z AUTO 19008G17KT 9SM VCTS -RA SCT006 BKN011 OVC045 21/21 A2997 RMK AO2 LTG DSNT SE TSB36RAE05B37 P0000
KOKK 251034Z AUTO 20009G17KT 10SM SCT008 BKN034 OVC047 21/21 A2997 RMK AO2 LTG DSNT SE RAE05 P0000
KOKK 250956Z AUTO 17007KT 4SM -RA BR FEW024 BKN080 OVC095 21/21 A2996 RMK AO2 LTG DSNT NE AND E TSB05E20B27E42RAB05 SLP143 P0018 T02110206
KOKK 250942Z AUTO 16008KT 5SM -RA BR FEW009 BKN050 OVC100 21/21 A2996 RMK AO2 LTG DSNT N-SE TSB05E20B27E42RAB05 P0016
KOKK 250933Z AUTO 19006KT 4SM VCTS -RA BR SCT007 BKN020 OVC060 21/21 A2997 RMK AO2 LTG DSNT E TSB05E20B27RAB05 P0015
KOKK 250924Z AUTO 20007KT 3SM RA BR SCT007 BKN012 OVC020 21/21 A2997 RMK AO2 LTG DSNT E AND SE AND NW TSB05E20RAB05 P0014
KOKK 250911Z AUTO 20008KT 3SM +TSRA BR BKN007 BKN012 OVC022 21/21 A2997 RMK AO2 LTG DSNT ALQDS TSB05RAB05 CIG 004V009 P0006
KOKK 250856Z AUTO 18009KT 4SM BR OVC007 21/21 A2997 RMK AO2 LTG DSNT S AND SW CIG 005V011 SLP147 60003 T02110211 55003
KOKK 250756Z AUTO 18006KT 6SM BR BKN007 BKN014 OVC055 21/21 A2997 RMK AO2 RAE00 CIG 005V011 SLP145 P0000 T02110206
KOKK 250737Z AUTO 16006KT 7SM SCT007 BKN014 OVC055 21/21 A2996 RMK AO2 RAE00 P0000
KOKK 250722Z AUTO 17007KT 7SM BKN007 OVC021 21/21 A2997 RMK AO2 RAE00 CIG 004V011 P0000
KOKK 250656Z AUTO 18007KT 4SM -RA BR BKN005 BKN008 OVC019 21/21 A2998 RMK AO2 RAB24 SLP148 P0003 T02110206
KOKK 250647Z AUTO 18008KT 2 1/2SM RA BR BKN005 BKN019 OVC029 21/21 A2998 RMK AO2 RAB24 CIG 003V010 P0003
KOKK 250635Z AUTO 18009KT 3SM -RA BR BKN005 OVC010 21/21 A2998 RMK AO2 RAB24 CIG 003V009 P0001
KOKK 250627Z AUTO 18007KT 2 1/2SM -RA BR BKN007 OVC010 21/21 A2998 RMK AO2 VIS 1 3/4V3 RAB24 CIG 003V009 P0000
KOKK 250610Z AUTO 19007KT 6SM BR OVC010 21/21 A2998 RMK AO2 CIG 006V012
KOKK 250556Z AUTO 18009KT 7SM OVC008 21/21 A2998 RMK AO2 CIG 006V012 SLP150 60002 T02110206 10211 20206 58001
KOKK 250524Z AUTO 18006KT 7SM OVC008 21/21 A2998 RMK AO2 CIG 007V012
KOKK 250504Z AUTO 18006KT 7SM BKN010 OVC015 21/21 A2998 RMK AO2 CIG 007V013
KOKK 250456Z AUTO 19006KT 7SM BKN008 OVC015 21/21 A2999 RMK AO2 CIG 006V010 SLP151 T02060206 402170128
KOKK 250356Z AUTO 19006KT 10SM OVC008 21/21 A2999 RMK AO2 CIG 005V009 SLP152 T02060206
KOKK 250330Z AUTO 19005KT 10SM BKN006 OVC009 21/ A2999 RMK AO2 CIG 004V009
KOKK 250310Z AUTO 18005KT 9SM OVC004 21/ A2998 RMK AO2
KOKK 250256Z AUTO 17007KT 8SM OVC006 21/20 A2998 RMK AO2 RAE04B30E45 CIG 003V009 SLP149 P0001 60002 T02060200 53006
KOKK 250156Z AUTO 16007KT 4SM -RA BR BKN006 OVC019 21/20 A2998 RMK AO2 RAB45 SLP149 P0001 T02060200
KOKK 250056Z AUTO 14006KT 9SM OVC006 21/20 A2997 RMK AO2 SLP146 T02060200
KOKK 250037Z AUTO 12004KT 9SM OVC009 21/20 A2996 RMK AO2 CIG 005V012
KOKK 242356Z AUTO 12005KT 8SM OVC011 21/20 A2996 RMK AO2 RAE05 CIG 008V012 SLP145 P0000 60000 T02060200 10217 20206 56011
KOKK 242336Z AUTO 13006KT 10SM OVC011 21/20 A2997 RMK AO2 RAE05 P0000
KOKK 242256Z AUTO 15008KT 7SM -RA OVC009 21/20 A2997 RMK AO2 RAB54 CIG 007V012 SLP149 P0000 T02110200
KOKK 242238Z AUTO 14005KT 10SM BKN009 OVC015 21/19 A2997 RMK AO2 CIG 008V013
KOKK 242216Z AUTO 14009KT 10SM SCT009 OVC013 21/19 A2998 RMK AO2
KOKK 242156Z AUTO 14009KT 10SM OVC010 21/19 A2998 RMK AO2 CIG 008V013 SLP152 T02110194
KOKK 242056Z AUTO 12006KT 10SM OVC012 21/19 A2999 RMK AO2 SLP157 T02110189 56020
KOKK 241956Z AUTO 15009KT 10SM OVC014 22/18 A3001 RMK AO2 SLP160 T02170183
KOKK 241856Z AUTO 15008KT 10SM OVC012 22/18 A3002 RMK AO2 SLP166 T02170183
KOKK 241756Z AUTO 15008KT 10SM OVC010 21/18 A3006 RMK AO2 RAE04 SLP178 P0000 60000 T02110183 10211 20150 55009
KOKK 241751Z AUTO 12008KT 10SM OVC010 21/18 A3005 RMK AO2 RAE04 CIG 009V014 P0000
KOKK 241656Z AUTO 13008KT 9SM -RA OVC008 19/18 A3008 RMK AO2 RAB23E38B54 SLP186 P0000 T01890178